createdAt,value
2023-04-20T00:02:24.090Z,10.90
2023-04-20T00:04:54.104Z,10.80
2023-04-20T00:07:24.806Z,11.10
2023-04-20T00:09:53.145Z,10.80
2023-04-20T00:12:21.478Z,10.80
2023-04-20T00:14:49.958Z,10.90
2023-04-20T00:17:18.366Z,11.00
2023-04-20T00:19:47.285Z,10.70
2023-04-20T00:22:17.013Z,10.70
2023-04-20T00:24:45.339Z,10.60
2023-04-20T00:27:13.696Z,10.60
2023-04-20T00:29:44.508Z,10.60
2023-04-20T00:32:12.867Z,10.50
2023-04-20T00:34:42.142Z,10.50
2023-04-20T00:37:10.501Z,10.70
2023-04-20T00:39:41.239Z,10.50
2023-04-20T00:42:10.455Z,10.50
2023-04-20T00:44:38.808Z,10.50
2023-04-20T00:47:07.788Z,10.50
2023-04-20T00:49:36.228Z,10.40
2023-04-20T00:52:04.898Z,10.40
2023-04-20T00:54:33.564Z,10.40
2023-04-20T00:57:05.789Z,10.30
2023-04-20T00:59:36.443Z,10.30
2023-04-20T01:02:04.959Z,10.30
2023-04-20T01:04:35.065Z,10.30
2023-04-20T01:07:03.727Z,10.60
2023-04-20T01:09:32.049Z,10.30
2023-04-20T01:12:02.860Z,10.30
2023-04-20T01:14:31.201Z,10.30
2023-04-20T01:16:59.597Z,10.40
2023-04-20T01:19:28.123Z,10.10
2023-04-20T01:21:56.639Z,10.10
2023-04-20T01:24:26.403Z,10.40
2023-04-20T01:26:54.799Z,10.20
2023-04-20T01:29:23.325Z,10.30
2023-04-20T01:31:51.807Z,10.20
2023-04-20T01:34:20.222Z,10.10
2023-04-20T01:36:48.669Z,9.90
2023-04-20T01:39:19.065Z,9.90
2023-04-20T01:41:50.023Z,9.90
2023-04-20T01:44:19.246Z,10.20
2023-04-20T01:46:47.680Z,9.90
2023-04-20T01:49:16.291Z,10.10
2023-04-20T01:51:44.825Z,10.10
2023-04-20T01:54:13.147Z,9.80
2023-04-20T01:56:41.706Z,10.00
2023-04-20T01:59:11.486Z,9.70
2023-04-20T02:01:39.960Z,10.00
2023-04-20T02:04:08.431Z,9.70
2023-04-20T02:06:36.970Z,9.80
2023-04-20T02:09:05.436Z,9.70
2023-04-20T02:11:36.527Z,9.60
2023-04-20T02:14:07.564Z,9.60
2023-04-20T02:16:37.943Z,9.60
2023-04-20T02:19:06.806Z,9.80
2023-04-20T02:21:35.481Z,9.50
2023-04-20T02:24:05.325Z,9.70
2023-04-20T02:26:33.690Z,9.50
2023-04-20T02:29:02.026Z,9.40
2023-04-20T02:31:30.478Z,9.80
2023-04-20T02:34:00.167Z,9.60
2023-04-20T02:36:29.051Z,9.40
2023-04-20T02:38:57.399Z,9.50
2023-04-20T02:41:25.753Z,9.60
2023-04-20T02:43:54.174Z,9.50
2023-04-20T02:46:22.885Z,9.30
2023-04-20T02:48:51.557Z,9.60
2023-04-20T02:51:21.536Z,9.50
2023-04-20T02:53:51.245Z,9.50
2023-04-20T02:56:29.594Z,9.20
2023-04-20T02:59:02.862Z,9.50
2023-04-20T03:01:44.816Z,9.20
2023-04-20T03:04:18.196Z,9.20
2023-04-20T03:07:09.577Z,9.10
2023-04-20T03:09:40.045Z,9.10
2023-04-20T03:12:34.422Z,9.40
2023-04-20T03:15:22.731Z,9.10
2023-04-20T03:18:02.468Z,9.10
2023-04-20T03:20:31.346Z,9.30
2023-04-20T03:23:01.629Z,9.10
2023-04-20T03:25:31.096Z,9.10
2023-04-20T03:28:08.034Z,9.30
2023-04-20T03:30:37.515Z,9.20
2023-04-20T03:33:11.857Z,9.10
2023-04-20T03:35:40.305Z,9.20
2023-04-20T03:38:10.256Z,9.00
2023-04-20T03:40:38.724Z,9.00
2023-04-20T03:43:07.109Z,9.00
2023-04-20T03:45:35.483Z,9.00
2023-04-20T03:48:04.014Z,9.40
2023-04-20T03:50:32.402Z,9.00
2023-04-20T03:53:00.760Z,9.30
2023-04-20T03:55:30.511Z,9.30
2023-04-20T03:58:06.920Z,9.10
2023-04-20T04:00:46.394Z,9.00
2023-04-20T04:03:16.045Z,9.10
2023-04-20T04:05:44.491Z,9.40
2023-04-20T04:08:12.817Z,9.00
2023-04-20T04:10:42.686Z,9.30
2023-04-20T04:13:11.077Z,9.00
2023-04-20T04:15:39.450Z,9.00
2023-04-20T04:18:12.483Z,9.30
2023-04-20T04:20:42.451Z,9.10
2023-04-20T04:23:12.750Z,9.00
2023-04-20T04:25:57.224Z,9.20
2023-04-20T04:28:27.383Z,9.30
2023-04-20T04:31:17.419Z,9.00
2023-04-20T04:33:46.419Z,9.00
2023-04-20T04:36:24.240Z,9.10
2023-04-20T04:38:52.789Z,9.00
2023-04-20T04:41:23.520Z,9.30
2023-04-20T04:43:52.438Z,9.20
2023-04-20T04:46:27.693Z,9.00
2023-04-20T04:49:01.080Z,9.20
2023-04-20T04:51:29.616Z,9.00
2023-04-20T04:53:57.955Z,9.30
2023-04-20T04:56:28.519Z,9.30
2023-04-20T04:58:56.867Z,9.20
2023-04-20T05:01:25.229Z,9.10
2023-04-20T05:03:53.693Z,8.90
2023-04-20T05:06:22.123Z,8.90
2023-04-20T05:08:50.596Z,8.90
2023-04-20T05:11:18.961Z,9.20
2023-04-20T05:13:49.963Z,8.90
2023-04-20T05:16:18.365Z,9.00
2023-04-20T05:18:46.755Z,8.90
2023-04-20T05:21:15.047Z,8.90
2023-04-20T05:23:44.252Z,9.20
2023-04-20T05:26:12.561Z,9.30
2023-04-20T05:28:40.891Z,9.00
2023-04-20T05:31:10.691Z,9.30
2023-04-20T05:33:39.461Z,9.30
2023-04-20T05:36:10.954Z,9.20
2023-04-20T05:38:39.597Z,9.10
2023-04-20T05:41:07.927Z,9.40
2023-04-20T05:43:36.228Z,9.40
2023-04-20T05:46:04.922Z,9.30
2023-04-20T05:48:34.642Z,9.10
2023-04-20T05:51:02.993Z,9.20
2023-04-20T05:53:31.381Z,9.50
2023-04-20T05:55:59.695Z,9.30
2023-04-20T05:58:28.453Z,9.20
2023-04-20T06:00:56.866Z,9.30
2023-04-20T06:03:25.503Z,9.40
2023-04-20T06:05:55.447Z,9.60
2023-04-20T06:08:23.861Z,9.60
2023-04-20T06:10:56.012Z,9.70
2023-04-20T06:13:24.398Z,9.60
2023-04-20T06:15:52.923Z,9.40
2023-04-20T06:18:21.477Z,9.40
2023-04-20T06:20:49.842Z,9.70
2023-04-20T06:23:19.638Z,9.40
2023-04-20T06:25:47.987Z,9.60
2023-04-20T06:28:16.397Z,9.40
2023-04-20T06:30:44.762Z,9.80
2023-04-20T06:33:17.130Z,9.50
2023-04-20T06:35:45.506Z,9.50
2023-04-20T06:38:13.863Z,9.80
2023-04-20T06:40:43.569Z,9.60
2023-04-20T06:43:12.052Z,9.90
2023-04-20T06:45:40.410Z,9.60
2023-04-20T06:48:20.174Z,9.80
2023-04-20T06:50:57.516Z,9.80
2023-04-20T06:53:28.006Z,9.70
2023-04-20T06:55:58.499Z,9.70
2023-04-20T06:58:26.836Z,9.80
2023-04-20T07:00:55.193Z,9.80
2023-04-20T07:03:24.348Z,9.90
2023-04-20T07:05:52.852Z,10.10
2023-04-20T07:08:21.969Z,10.00
2023-04-20T07:10:50.298Z,10.10
2023-04-20T07:13:20.014Z,10.40
2023-04-20T07:15:48.343Z,10.40
2023-04-20T07:18:16.726Z,10.20
2023-04-20T07:20:45.248Z,10.30
2023-04-20T07:23:13.589Z,10.50
2023-04-20T07:25:42.019Z,10.40
2023-04-20T07:28:10.496Z,10.40
2023-04-20T07:30:40.271Z,10.50
2023-04-20T07:33:09.245Z,10.50
2023-04-20T07:35:37.979Z,10.60
2023-04-20T07:38:06.330Z,10.60
2023-04-20T07:40:34.648Z,10.60
2023-04-20T07:43:03.879Z,10.70
2023-04-20T07:45:32.206Z,10.70
2023-04-20T07:48:02.547Z,10.80
2023-04-20T07:50:30.913Z,10.90
2023-04-20T07:52:59.246Z,10.90
2023-04-20T07:55:27.861Z,11.00
2023-04-20T07:57:56.187Z,11.00
2023-04-20T08:00:25.612Z,11.10
2023-04-20T08:02:54.236Z,11.20
2023-04-20T08:05:25.110Z,11.30
2023-04-20T08:07:53.594Z,11.30
2023-04-20T08:10:22.153Z,11.40
2023-04-20T08:12:52.589Z,11.40
2023-04-20T08:15:21.211Z,11.50
2023-04-20T08:17:49.560Z,11.70
2023-04-20T08:20:18.359Z,11.60
2023-04-20T08:22:49.309Z,11.80
2023-04-20T08:25:18.204Z,12.00
2023-04-20T08:27:46.473Z,11.80
2023-04-20T08:30:15.417Z,11.80
2023-04-20T08:32:43.724Z,11.80
2023-04-20T08:35:12.189Z,11.90
2023-04-20T08:37:41.897Z,11.90
2023-04-20T08:40:13.144Z,12.20
2023-04-20T08:42:41.450Z,12.00
2023-04-20T08:45:10.355Z,12.10
2023-04-20T08:47:38.785Z,12.20
2023-04-20T08:50:09.760Z,12.40
2023-04-20T08:52:39.721Z,12.30
2023-04-20T08:55:09.368Z,12.40
2023-04-20T08:57:39.019Z,12.40
2023-04-20T09:00:13.820Z,12.50
2023-04-20T09:02:51.677Z,12.50
2023-04-20T09:05:28.262Z,12.80
2023-04-20T09:07:58.732Z,12.60
2023-04-20T09:10:29.014Z,12.70
2023-04-20T09:12:58.663Z,12.70
2023-04-20T09:15:28.661Z,12.90
2023-04-20T09:17:57.402Z,12.80
2023-04-20T09:20:31.684Z,12.90
2023-04-20T09:23:11.921Z,12.80
2023-04-20T09:25:41.133Z,13.10
2023-04-20T09:28:11.516Z,13.00
2023-04-20T09:30:41.490Z,13.10
2023-04-20T09:33:12.212Z,12.90
2023-04-20T09:35:42.253Z,12.90
2023-04-20T09:38:12.601Z,13.10
2023-04-20T09:40:40.970Z,13.00
2023-04-20T09:43:15.577Z,13.00
2023-04-20T09:45:44.946Z,13.00
2023-04-20T09:48:17.058Z,13.00
2023-04-20T09:50:49.783Z,13.10
2023-04-20T09:53:20.502Z,13.10
2023-04-20T09:55:50.478Z,13.20
2023-04-20T09:58:21.840Z,13.20
2023-04-20T10:00:51.048Z,13.30
2023-04-20T10:03:20.361Z,13.30
2023-04-20T10:05:49.428Z,13.40
2023-04-20T10:08:19.030Z,13.40
2023-04-20T10:10:49.693Z,13.40
2023-04-20T10:13:19.516Z,13.40
2023-04-20T10:15:49.813Z,13.50
2023-04-20T10:18:21.254Z,13.50
2023-04-20T10:20:49.904Z,13.50
2023-04-20T10:23:19.948Z,13.60
2023-04-20T10:25:58.626Z,13.60
2023-04-20T10:28:27.127Z,13.70
2023-04-20T10:30:56.877Z,13.70
2023-04-20T10:33:25.262Z,13.70
2023-04-20T10:35:57.794Z,13.80
2023-04-20T10:38:33.593Z,13.70
2023-04-20T10:41:08.289Z,13.80
2023-04-20T10:43:39.007Z,13.80
2023-04-20T10:46:19.804Z,13.90
2023-04-20T10:48:56.076Z,13.90
2023-04-20T10:51:25.081Z,13.90
2023-04-20T10:54:01.756Z,14.00
2023-04-20T10:56:38.068Z,14.00
2023-04-20T10:59:10.370Z,14.10
2023-04-20T11:01:41.016Z,14.10
2023-04-20T11:04:10.562Z,14.10
2023-04-20T11:06:40.718Z,14.10
2023-04-20T11:09:20.310Z,14.10
2023-04-20T11:11:59.441Z,14.20
2023-04-20T11:14:27.853Z,14.20
2023-04-20T11:16:57.698Z,14.20
2023-04-20T11:19:28.831Z,14.20
2023-04-20T11:21:57.656Z,14.30
2023-04-20T11:24:27.782Z,14.30
2023-04-20T11:26:57.996Z,14.30
2023-04-20T11:29:31.980Z,14.30
2023-04-20T11:32:04.071Z,14.00
2023-04-20T11:34:32.840Z,14.30
2023-04-20T11:37:06.556Z,14.30
2023-04-20T11:39:35.583Z,14.30
2023-04-20T11:42:04.172Z,14.30
2023-04-20T11:44:33.085Z,14.30
2023-04-20T11:47:03.988Z,14.40
2023-04-20T11:49:32.475Z,14.40
2023-04-20T11:52:01.243Z,14.40
2023-04-20T11:54:32.329Z,14.40
2023-04-20T11:57:00.839Z,14.50
2023-04-20T11:59:29.244Z,14.50
2023-04-20T12:01:57.657Z,14.50
2023-04-20T12:04:28.237Z,14.50
2023-04-20T12:06:58.364Z,14.60
2023-04-20T12:09:26.967Z,14.60
2023-04-20T12:11:55.395Z,14.60
2023-04-20T12:14:23.761Z,14.50
2023-04-20T12:16:52.181Z,14.50
2023-04-20T12:19:20.775Z,14.50
2023-04-20T12:21:50.570Z,14.50
2023-04-20T12:24:19.072Z,14.50
2023-04-20T12:26:47.719Z,14.50
2023-04-20T12:29:16.503Z,14.60
2023-04-20T12:31:45.261Z,14.60
2023-04-20T12:34:13.862Z,14.60
2023-04-20T12:36:42.269Z,14.60
2023-04-20T12:39:12.108Z,14.60
2023-04-20T12:41:42.273Z,14.60
2023-04-20T12:44:11.517Z,14.50
2023-04-20T12:46:40.021Z,14.50
2023-04-20T12:49:08.430Z,14.50
2023-04-20T12:51:36.887Z,14.50
2023-04-20T12:54:05.326Z,14.50
2023-04-20T12:56:35.121Z,14.50
2023-04-20T12:59:03.488Z,14.50
2023-04-20T13:01:31.885Z,14.50
2023-04-20T13:04:00.525Z,14.50
2023-04-20T13:06:29.076Z,14.50
2023-04-20T13:08:57.402Z,14.50
2023-04-20T13:11:27.181Z,14.50
2023-04-20T13:13:58.109Z,14.50
2023-04-20T13:16:26.903Z,14.50
2023-04-20T13:18:55.340Z,14.50
2023-04-20T13:21:23.730Z,14.50
2023-04-20T13:23:54.046Z,14.50
2023-04-20T13:26:23.257Z,14.40
2023-04-20T13:28:51.630Z,14.40
2023-04-20T13:31:21.477Z,14.40
2023-04-20T13:33:54.451Z,14.40
2023-04-20T13:36:23.045Z,14.40
2023-04-20T13:38:54.611Z,14.30
2023-04-20T13:41:23.998Z,14.30
2023-04-20T13:43:52.636Z,14.30
2023-04-20T13:46:22.585Z,14.20
2023-04-20T13:48:50.977Z,14.20
2023-04-20T13:51:19.384Z,14.20
2023-04-20T13:53:49.065Z,14.20
2023-04-20T13:56:17.902Z,14.10
2023-04-20T13:58:46.381Z,14.10
2023-04-20T14:01:16.585Z,14.10
2023-04-20T14:03:46.533Z,14.10
2023-04-20T14:06:15.188Z,14.10
2023-04-20T14:08:43.602Z,14.10
2023-04-20T14:11:11.998Z,14.10
2023-04-20T14:13:41.143Z,14.00
2023-04-20T14:16:11.002Z,14.00
2023-04-20T14:18:39.750Z,14.00
2023-04-20T14:21:09.535Z,14.00
2023-04-20T14:23:38.203Z,14.00
2023-04-20T14:26:07.164Z,14.00
2023-04-20T14:28:35.926Z,14.00
2023-04-20T14:31:04.728Z,14.00
2023-04-20T14:33:33.124Z,13.90
2023-04-20T14:36:15.550Z,13.90
2023-04-20T14:38:44.081Z,13.90
2023-04-20T14:41:12.419Z,13.90
2023-04-20T14:43:40.879Z,13.90
2023-04-20T14:46:09.347Z,13.90
2023-04-20T14:48:38.162Z,13.80
2023-04-20T14:51:06.864Z,13.80
2023-04-20T14:53:36.677Z,13.80
2023-04-20T14:56:05.487Z,13.80
2023-04-20T14:58:34.001Z,13.80
2023-04-20T15:01:02.479Z,13.80
2023-04-20T15:03:31.224Z,13.80
2023-04-20T15:06:03.606Z,13.80
2023-04-20T15:08:31.956Z,13.80
2023-04-20T15:11:02.098Z,13.80
2023-04-20T15:13:30.617Z,13.80
2023-04-20T15:15:59.404Z,13.80
2023-04-20T15:18:27.989Z,13.80
2023-04-20T15:20:56.469Z,13.80
2023-04-20T15:23:25.114Z,13.80
2023-04-20T15:25:54.083Z,13.90
2023-04-20T15:28:23.817Z,13.90
2023-04-20T15:30:52.268Z,13.90
2023-04-20T15:33:20.763Z,13.90
2023-04-20T15:35:50.449Z,13.80
2023-04-20T15:38:18.873Z,13.80
2023-04-20T15:40:47.598Z,13.90
2023-04-20T15:43:15.984Z,13.80
2023-04-20T15:45:45.774Z,13.90
2023-04-20T15:48:14.241Z,13.90
2023-04-20T15:50:42.716Z,13.90
2023-04-20T15:53:11.198Z,13.90
2023-04-20T15:55:40.113Z,13.90
2023-04-20T15:58:08.538Z,13.90
2023-04-20T16:00:37.158Z,13.90
2023-04-20T16:03:07.050Z,13.90
2023-04-20T16:05:35.790Z,13.90
2023-04-20T16:08:05.412Z,13.90
2023-04-20T16:10:34.188Z,13.90
2023-04-20T16:13:03.582Z,13.80
2023-04-20T16:15:32.153Z,13.80
2023-04-20T16:18:00.662Z,13.80
2023-04-20T16:20:30.532Z,13.80
2023-04-20T16:22:58.834Z,13.80
2023-04-20T16:25:28.497Z,13.80
2023-04-20T16:27:56.891Z,13.70
2023-04-20T16:30:25.340Z,13.70
2023-04-20T16:32:53.677Z,13.70
2023-04-20T16:35:22.675Z,13.70
2023-04-20T16:37:52.420Z,13.70
2023-04-20T16:40:21.869Z,13.70
2023-04-20T16:42:50.199Z,13.70
2023-04-20T16:45:18.983Z,13.70
2023-04-20T16:47:47.745Z,13.70
2023-04-20T16:50:19.659Z,13.60
2023-04-20T16:52:48.886Z,13.60
2023-04-20T16:55:18.978Z,13.60
2023-04-20T16:57:47.502Z,13.60
2023-04-20T17:00:17.669Z,13.60
2023-04-20T17:02:46.225Z,13.60
2023-04-20T17:05:14.944Z,13.60
2023-04-20T17:07:43.436Z,13.60
2023-04-20T17:10:12.404Z,13.50
2023-04-20T17:12:42.448Z,13.50
2023-04-20T17:15:12.256Z,13.50
2023-04-20T17:17:43.676Z,13.50
2023-04-20T17:20:12.950Z,13.50
2023-04-20T17:22:41.393Z,13.50
2023-04-20T17:25:11.014Z,13.40
2023-04-20T17:27:39.532Z,13.40
2023-04-20T17:30:11.945Z,13.40
2023-04-20T17:32:40.434Z,13.40
2023-04-20T17:35:09.778Z,13.30
2023-04-20T17:37:38.728Z,13.30
2023-04-20T17:40:09.273Z,13.30
2023-04-20T17:42:37.661Z,13.30
2023-04-20T17:45:09.357Z,13.30
2023-04-20T17:47:37.938Z,13.20
2023-04-20T17:50:08.259Z,13.20
2023-04-20T17:52:36.685Z,13.20
2023-04-20T17:55:06.112Z,13.20
2023-04-20T17:57:34.696Z,13.20
2023-04-20T18:00:05.045Z,13.20
2023-04-20T18:02:41.772Z,13.10
2023-04-20T18:05:11.187Z,13.20
2023-04-20T18:07:42.333Z,13.10
2023-04-20T18:10:13.577Z,13.10
2023-04-20T18:12:41.966Z,13.10
2023-04-20T18:15:11.713Z,13.10
2023-04-20T18:17:42.361Z,13.10
2023-04-20T18:20:11.916Z,13.10
2023-04-20T18:22:40.493Z,13.10
2023-04-20T18:25:10.006Z,13.10
2023-04-20T18:27:38.502Z,13.10
2023-04-20T18:30:09.168Z,13.10
2023-04-20T18:32:38.574Z,13.10
2023-04-20T18:35:11.004Z,13.00
2023-04-20T18:37:43.935Z,13.00
2023-04-20T18:40:15.480Z,13.00
2023-04-20T18:42:44.717Z,13.00
2023-04-20T18:45:13.382Z,13.00
2023-04-20T18:47:44.592Z,13.00
2023-04-20T18:50:15.314Z,12.90
2023-04-20T18:52:43.969Z,12.90
2023-04-20T18:55:12.434Z,12.90
2023-04-20T18:57:48.681Z,12.90
2023-04-20T19:00:17.870Z,12.90
2023-04-20T19:02:46.381Z,12.90
2023-04-20T19:05:16.355Z,12.90
2023-04-20T19:07:46.180Z,12.90
2023-04-20T19:10:14.556Z,12.80
2023-04-20T19:12:43.118Z,12.80
2023-04-20T19:15:12.482Z,12.80
2023-04-20T19:17:41.989Z,12.80
2023-04-20T19:20:11.680Z,12.80
2023-04-20T19:22:41.437Z,12.80
2023-04-20T19:25:10.190Z,12.70
2023-04-20T19:27:38.579Z,12.70
2023-04-20T19:30:08.851Z,12.70
2023-04-20T19:32:37.333Z,12.70
2023-04-20T19:35:08.836Z,12.70
2023-04-20T19:37:37.252Z,12.70
2023-04-20T19:40:08.598Z,12.70
2023-04-20T19:42:37.542Z,12.70
2023-04-20T19:45:07.364Z,12.70
2023-04-20T19:47:36.077Z,12.70
2023-04-20T19:50:04.719Z,12.80
2023-04-20T19:52:34.417Z,12.70
2023-04-20T19:55:03.941Z,12.70
2023-04-20T19:57:33.794Z,12.70
2023-04-20T20:00:02.337Z,12.70
2023-04-20T20:02:41.756Z,12.70
2023-04-20T20:05:12.450Z,12.70
2023-04-20T20:07:43.899Z,12.70
2023-04-20T20:10:12.367Z,12.70
2023-04-20T20:12:42.329Z,12.70
2023-04-20T20:15:10.843Z,12.70
2023-04-20T20:17:39.332Z,12.70
2023-04-20T20:20:12.245Z,12.70
2023-04-20T20:22:49.771Z,12.70
2023-04-20T20:25:20.001Z,12.70
2023-04-20T20:27:50.597Z,12.70
2023-04-20T20:30:19.480Z,12.70
2023-04-20T20:32:47.998Z,12.80
2023-04-20T20:35:16.562Z,12.70
2023-04-20T20:37:45.484Z,12.70
2023-04-20T20:40:14.840Z,12.70
2023-04-20T20:42:45.105Z,12.70
2023-04-20T20:45:18.270Z,12.70
2023-04-20T20:47:47.141Z,12.70
2023-04-20T20:50:18.078Z,12.70
2023-04-20T20:52:46.643Z,12.70
2023-04-20T20:55:15.361Z,12.60
2023-04-20T20:57:43.831Z,12.70
2023-04-20T21:00:14.676Z,12.70
2023-04-20T21:02:43.304Z,12.60
2023-04-20T21:05:12.370Z,12.60
2023-04-20T21:07:41.409Z,12.70
2023-04-20T21:10:11.796Z,12.60
2023-04-20T21:12:40.492Z,12.60
2023-04-20T21:15:10.419Z,12.60
2023-04-20T21:17:40.281Z,12.60
2023-04-20T21:20:10.627Z,12.60
2023-04-20T21:22:39.072Z,12.60
2023-04-20T21:25:08.896Z,12.60
2023-04-20T21:27:37.337Z,12.60
2023-04-20T21:30:10.240Z,12.60
2023-04-20T21:32:41.390Z,12.50
2023-04-20T21:35:11.044Z,12.50
2023-04-20T21:37:39.504Z,12.50
2023-04-20T21:40:10.178Z,12.50
2023-04-20T21:42:38.578Z,12.50
2023-04-20T21:45:08.288Z,12.50
2023-04-20T21:47:36.726Z,12.50
2023-04-20T21:50:07.585Z,12.50
2023-04-20T21:52:36.138Z,12.50
2023-04-20T21:55:04.594Z,12.50
2023-04-20T21:57:33.107Z,12.50
2023-04-20T22:00:01.479Z,12.50
2023-04-20T22:02:29.994Z,12.70
2023-04-20T22:04:58.394Z,12.50
2023-04-20T22:07:28.122Z,12.50
2023-04-20T22:09:56.487Z,12.50
2023-04-20T22:12:38.321Z,12.50
2023-04-20T22:15:13.513Z,12.50
2023-04-20T22:17:46.601Z,12.50
2023-04-20T22:20:21.662Z,12.50
2023-04-20T22:22:51.543Z,12.50
2023-04-20T22:25:19.973Z,12.50
2023-04-20T22:27:48.495Z,12.50
2023-04-20T22:30:16.901Z,12.50
2023-04-20T22:32:45.459Z,12.50
2023-04-20T22:35:13.831Z,12.50
2023-04-20T22:37:42.309Z,12.70
2023-04-20T22:40:14.154Z,12.50
2023-04-20T22:42:43.515Z,12.50
2023-04-20T22:45:12.860Z,12.70
2023-04-20T22:47:41.956Z,12.40
2023-04-20T22:50:12.224Z,12.40
2023-04-20T22:52:40.716Z,12.40
2023-04-20T22:55:13.336Z,12.50
2023-04-20T22:57:41.803Z,12.40
2023-04-20T23:00:13.585Z,12.30
2023-04-20T23:02:42.332Z,12.30
2023-04-20T23:05:11.645Z,12.30
2023-04-20T23:07:45.370Z,12.30
2023-04-20T23:10:16.344Z,12.30
2023-04-20T23:12:48.091Z,12.30
2023-04-20T23:15:16.430Z,12.20
2023-04-20T23:17:44.881Z,12.20
2023-04-20T23:20:15.149Z,12.20
2023-04-20T23:22:46.442Z,12.20
2023-04-20T23:25:16.123Z,12.20
2023-04-20T23:27:44.458Z,12.10
2023-04-20T23:30:14.061Z,12.10
2023-04-20T23:32:44.290Z,12.10
2023-04-20T23:35:13.004Z,12.00
2023-04-20T23:37:41.418Z,12.00
2023-04-20T23:40:11.981Z,12.00
2023-04-20T23:42:42.045Z,12.00
2023-04-20T23:45:11.929Z,11.90
2023-04-20T23:47:40.335Z,11.90
2023-04-20T23:50:10.357Z,11.90
2023-04-20T23:52:38.728Z,11.90
2023-04-20T23:55:08.107Z,12.10
2023-04-20T23:57:36.512Z,11.80
